createdAt,value
2023-09-25T00:01:44.920Z,101783.63
2023-09-25T00:04:12.127Z,101789.69
2023-09-25T00:06:39.323Z,101788.84
2023-09-25T00:09:09.856Z,101792.31
2023-09-25T00:11:36.921Z,101794.03
2023-09-25T00:14:04.142Z,101790.50
2023-09-25T00:16:31.365Z,101785.31
2023-09-25T00:18:58.608Z,101785.31
2023-09-25T00:21:25.883Z,101793.94
2023-09-25T00:23:53.112Z,101788.81
2023-09-25T00:26:20.215Z,101792.25
2023-09-25T00:28:51.369Z,101797.44
2023-09-25T00:31:18.635Z,101795.69
2023-09-25T00:33:46.880Z,101795.69
2023-09-25T00:36:14.067Z,101797.41
2023-09-25T00:38:41.156Z,101788.72
2023-09-25T00:41:08.316Z,101795.66
2023-09-25T00:43:35.564Z,101799.13
2023-09-25T00:46:03.451Z,101797.41
2023-09-25T00:48:31.833Z,101798.31
2023-09-25T00:51:03.376Z,101792.25
2023-09-25T00:53:31.539Z,101793.09
2023-09-25T00:55:58.907Z,101793.09
2023-09-25T00:58:26.961Z,101797.41
2023-09-25T01:00:56.226Z,101799.09
2023-09-25T01:03:23.518Z,101761.72
2023-09-25T01:05:50.880Z,101797.31
2023-09-25T01:08:18.112Z,101799.88
2023-09-25T01:10:45.881Z,101790.31
2023-09-25T01:13:13.121Z,101798.09
2023-09-25T01:15:40.598Z,101803.31
2023-09-25T01:18:09.699Z,101796.44
2023-09-25T01:20:37.976Z,101797.31
2023-09-25T01:23:05.290Z,101797.41
2023-09-25T01:25:32.565Z,101783.53
2023-09-25T01:27:59.944Z,101790.50
2023-09-25T01:30:27.487Z,101788.81
2023-09-25T01:32:54.988Z,101790.53
2023-09-25T01:35:27.613Z,101784.47
2023-09-25T01:37:59.960Z,101785.34
2023-09-25T01:40:28.242Z,101783.63
2023-09-25T01:42:55.356Z,101782.75
2023-09-25T01:45:22.542Z,101774.06
2023-09-25T01:47:53.198Z,101775.84
2023-09-25T01:50:26.193Z,101774.13
2023-09-25T01:52:56.545Z,101775.81
2023-09-25T01:55:23.655Z,101781.03
2023-09-25T01:57:50.877Z,101766.25
2023-09-25T02:00:20.221Z,101781.88
2023-09-25T02:02:48.559Z,101777.56
2023-09-25T02:05:16.877Z,101782.75
2023-09-25T02:07:44.160Z,101778.44
2023-09-25T02:10:11.434Z,101764.56
2023-09-25T02:12:39.076Z,101776.66
2023-09-25T02:15:08.454Z,101777.56
2023-09-25T02:17:36.614Z,101776.66
2023-09-25T02:20:25.382Z,101769.75
2023-09-25T02:22:52.844Z,101771.44
2023-09-25T02:25:20.254Z,101766.25
2023-09-25T02:27:48.016Z,101767.09
2023-09-25T02:30:16.099Z,101767.97
2023-09-25T02:32:43.944Z,101765.38
2023-09-25T02:35:12.244Z,101755.84
2023-09-25T02:37:42.414Z,101758.44
2023-09-25T02:40:16.267Z,101757.56
2023-09-25T02:42:47.635Z,101750.63
2023-09-25T02:45:15.531Z,101741.97
2023-09-25T02:47:43.044Z,101760.19
2023-09-25T02:50:11.289Z,101754.97
2023-09-25T02:52:38.571Z,101761.06
2023-09-25T02:55:06.262Z,101729.81
2023-09-25T02:57:33.603Z,101758.44
2023-09-25T03:00:02.739Z,101754.97
2023-09-25T03:02:30.403Z,101754.13
2023-09-25T03:04:57.967Z,101760.19
2023-09-25T03:07:25.139Z,101748.91
2023-09-25T03:09:52.413Z,101750.66
2023-09-25T03:12:20.525Z,101754.97
2023-09-25T03:14:49.630Z,101745.44
2023-09-25T03:17:16.760Z,101736.75
2023-09-25T03:19:43.973Z,101745.44
2023-09-25T03:22:11.084Z,101736.75
2023-09-25T03:24:38.342Z,101745.38
2023-09-25T03:27:05.448Z,101745.38
2023-09-25T03:29:32.555Z,101735.88
2023-09-25T03:31:59.789Z,101734.09
2023-09-25T03:34:29.192Z,101742.75
2023-09-25T03:36:56.276Z,101736.69
2023-09-25T03:39:23.405Z,101736.69
2023-09-25T03:41:50.576Z,101734.97
2023-09-25T03:44:18.087Z,101728.00
2023-09-25T03:46:45.187Z,101727.16
2023-09-25T03:49:12.365Z,101730.63
2023-09-25T03:51:39.506Z,101726.25
2023-09-25T03:54:06.749Z,101731.44
2023-09-25T03:56:33.948Z,101731.44
2023-09-25T03:59:01.019Z,101723.63
2023-09-25T04:01:28.410Z,101726.25
2023-09-25T04:03:55.779Z,101731.44
2023-09-25T04:06:23.064Z,101732.28
2023-09-25T04:08:50.752Z,101733.97
2023-09-25T04:11:19.913Z,101740.03
2023-09-25T04:13:48.447Z,101738.31
2023-09-25T04:16:15.730Z,101733.13
2023-09-25T04:18:44.115Z,101697.47
2023-09-25T04:21:19.043Z,101727.88
2023-09-25T04:23:46.437Z,101719.22
2023-09-25T04:26:13.615Z,101722.66
2023-09-25T04:28:44.440Z,101724.38
2023-09-25T04:31:12.849Z,101725.28
2023-09-25T04:33:42.805Z,101725.28
2023-09-25T04:36:11.993Z,101716.63
2023-09-25T04:38:39.403Z,101719.22
2023-09-25T04:41:07.214Z,101733.91
2023-09-25T04:43:34.475Z,101722.66
2023-09-25T04:46:02.443Z,101723.53
2023-09-25T04:48:31.361Z,101715.78
2023-09-25T04:50:59.002Z,101726.16
2023-09-25T04:53:26.454Z,101726.16
2023-09-25T04:55:54.038Z,101722.69
2023-09-25T04:58:21.383Z,101724.44
2023-09-25T05:00:49.984Z,101727.91
2023-09-25T05:03:17.536Z,101727.91
2023-09-25T05:05:46.199Z,101733.13
2023-09-25T05:08:13.852Z,101730.47
2023-09-25T05:10:41.142Z,101727.91
2023-09-25T05:13:08.370Z,101734.88
2023-09-25T05:15:36.252Z,101729.69
2023-09-25T05:18:04.280Z,101736.66
2023-09-25T05:20:31.539Z,101738.38
2023-09-25T05:22:58.897Z,101736.66
2023-09-25T05:25:26.261Z,101732.38
2023-09-25T05:27:55.924Z,101736.81
2023-09-25T05:30:23.630Z,101735.16
2023-09-25T05:32:54.877Z,101740.34
2023-09-25T05:35:22.613Z,101743.78
2023-09-25T05:37:50.825Z,101740.34
2023-09-25T05:40:19.092Z,101745.56
2023-09-25T05:42:48.119Z,101749.88
2023-09-25T05:45:17.565Z,101723.84
2023-09-25T05:47:46.493Z,101745.56
2023-09-25T05:50:14.403Z,101745.56
2023-09-25T05:52:41.866Z,101742.16
2023-09-25T05:55:09.952Z,101752.56
2023-09-25T05:57:37.474Z,101747.34
2023-09-25T06:00:24.558Z,101750.00
2023-09-25T06:02:52.250Z,101743.91
2023-09-25T06:05:19.627Z,101746.53
2023-09-25T06:07:46.773Z,101748.25
2023-09-25T06:10:13.989Z,101747.41
2023-09-25T06:12:41.370Z,101760.41
2023-09-25T06:15:12.199Z,101754.34
2023-09-25T06:17:41.264Z,101756.97
2023-09-25T06:20:17.587Z,101760.44
2023-09-25T06:22:46.128Z,101761.31
2023-09-25T06:25:19.377Z,101748.31
2023-09-25T06:27:47.985Z,101759.59
2023-09-25T06:30:16.263Z,101761.34
2023-09-25T06:32:43.543Z,101758.75
2023-09-25T06:35:10.782Z,101759.59
2023-09-25T06:37:39.614Z,101763.06
2023-09-25T06:40:11.697Z,101768.28
2023-09-25T06:42:40.558Z,101772.63
2023-09-25T06:45:10.816Z,101757.88
2023-09-25T06:47:38.904Z,101778.69
2023-09-25T06:50:07.074Z,101780.41
2023-09-25T06:52:34.218Z,101777.81
2023-09-25T06:55:01.331Z,101774.31
2023-09-25T06:57:28.532Z,101775.19
2023-09-25T06:59:55.733Z,101776.91
2023-09-25T07:02:23.007Z,101775.19
2023-09-25T07:04:50.698Z,101771.72
2023-09-25T07:07:18.119Z,101776.91
2023-09-25T07:09:45.489Z,101779.47
2023-09-25T07:12:15.881Z,101790.72
2023-09-25T07:14:49.873Z,101782.81
2023-09-25T07:17:17.807Z,101788.81
2023-09-25T07:19:44.993Z,101790.47
2023-09-25T07:22:12.224Z,101794.75
2023-09-25T07:24:39.879Z,101797.31
2023-09-25T07:27:07.056Z,101788.56
2023-09-25T07:29:42.052Z,101776.28
2023-09-25T07:32:10.123Z,101783.13
2023-09-25T07:34:38.162Z,101776.09
2023-09-25T07:37:06.769Z,101775.13
2023-09-25T07:39:36.356Z,101786.28
2023-09-25T07:42:03.682Z,101788.75
2023-09-25T07:44:34.797Z,101798.25
2023-09-25T07:47:08.012Z,101784.31
2023-09-25T07:49:41.819Z,101791.22
2023-09-25T07:52:19.779Z,101792.75
2023-09-25T07:54:50.067Z,101799.53
2023-09-25T07:57:20.693Z,101788.94
2023-09-25T07:59:49.054Z,101780.16
2023-09-25T08:02:21.360Z,101776.47
2023-09-25T08:04:51.986Z,101794.34
2023-09-25T08:07:20.368Z,101786.25
2023-09-25T08:09:47.881Z,101784.94
2023-09-25T08:12:15.191Z,101779.22
2023-09-25T08:14:42.449Z,101762.50
2023-09-25T08:17:10.166Z,101769.06
2023-09-25T08:19:37.660Z,101772.25
2023-09-25T08:22:05.252Z,101775.50
2023-09-25T08:24:32.524Z,101766.50
2023-09-25T08:27:01.295Z,101773.13
2023-09-25T08:29:28.475Z,101768.25
2023-09-25T08:31:55.717Z,101767.28
2023-09-25T08:34:23.239Z,101768.84
2023-09-25T08:36:50.572Z,101768.09
2023-09-25T08:39:18.936Z,101765.31
2023-09-25T08:41:47.560Z,101771.19
2023-09-25T08:44:17.475Z,101764.94
2023-09-25T08:46:45.427Z,101750.84
2023-09-25T08:49:13.629Z,101754.97
2023-09-25T08:51:41.266Z,101764.94
2023-09-25T08:54:09.756Z,101757.47
2023-09-25T08:56:38.259Z,101752.72
2023-09-25T08:59:05.700Z,101740.56
2023-09-25T09:01:33.559Z,101745.44
2023-09-25T09:04:00.823Z,101761.09
2023-09-25T09:06:28.335Z,101753.06
2023-09-25T09:08:57.869Z,101755.50
2023-09-25T09:11:25.053Z,101753.59
2023-09-25T09:13:52.262Z,101759.63
2023-09-25T09:16:21.153Z,101756.97
2023-09-25T09:18:48.912Z,101756.88
2023-09-25T09:21:28.646Z,101754.88
2023-09-25T09:23:58.492Z,101749.41
2023-09-25T09:26:26.928Z,101740.72
2023-09-25T09:28:57.511Z,101746.66
2023-09-25T09:31:24.593Z,101742.78
2023-09-25T09:33:56.844Z,101741.59
2023-09-25T09:36:24.990Z,101736.84
2023-09-25T09:38:53.729Z,101725.00
2023-09-25T09:41:21.158Z,101736.41
2023-09-25T09:43:49.028Z,101734.06
2023-09-25T09:46:17.690Z,101728.09
2023-09-25T09:48:48.116Z,101729.03
2023-09-25T09:51:19.074Z,101729.03
2023-09-25T09:53:46.743Z,101711.06
2023-09-25T09:56:15.988Z,101727.63
2023-09-25T09:58:43.271Z,101721.59
2023-09-25T10:01:11.088Z,101720.81
2023-09-25T10:03:38.744Z,101720.66
2023-09-25T10:06:06.785Z,101716.00
2023-09-25T10:08:33.930Z,101714.88
2023-09-25T10:11:21.522Z,101711.47
2023-09-25T10:13:48.747Z,101707.47
2023-09-25T10:16:17.256Z,101691.47
2023-09-25T10:18:44.705Z,101692.03
2023-09-25T10:21:16.224Z,101686.38
2023-09-25T10:23:55.754Z,101685.94
2023-09-25T10:26:25.934Z,101690.72
2023-09-25T10:29:16.499Z,101671.16
2023-09-25T10:31:48.401Z,101665.88
2023-09-25T10:34:15.674Z,101684.06
2023-09-25T10:36:45.452Z,101662.22
2023-09-25T10:39:17.042Z,101657.91
2023-09-25T10:41:47.189Z,101668.88
2023-09-25T10:44:15.426Z,101664.81
2023-09-25T10:46:42.971Z,101653.06
2023-09-25T10:49:10.500Z,101665.09
2023-09-25T10:51:37.703Z,101656.19
2023-09-25T10:54:05.182Z,101658.22
2023-09-25T10:56:34.397Z,101650.50
2023-09-25T10:59:02.548Z,101656.06
2023-09-25T11:01:31.366Z,101652.13
2023-09-25T11:04:02.679Z,101652.56
2023-09-25T11:06:30.639Z,101651.06
2023-09-25T11:09:08.274Z,101648.31
2023-09-25T11:11:35.642Z,101644.00
2023-09-25T11:14:03.997Z,101635.09
2023-09-25T11:16:31.348Z,101630.53
2023-09-25T11:19:12.220Z,101641.41
2023-09-25T11:21:41.383Z,101641.09
2023-09-25T11:24:09.973Z,101633.50
2023-09-25T11:26:38.494Z,101631.34
2023-09-25T11:29:09.436Z,101628.00
2023-09-25T11:31:54.383Z,101628.22
2023-09-25T11:34:27.798Z,101617.22
2023-09-25T11:36:55.148Z,101615.75
2023-09-25T11:39:22.641Z,101618.41
2023-09-25T11:41:49.911Z,101616.69
2023-09-25T11:44:17.079Z,101618.22
2023-09-25T11:46:44.569Z,101618.13
2023-09-25T11:49:13.771Z,101611.00
2023-09-25T11:51:41.563Z,101602.31
2023-09-25T11:54:09.230Z,101611.56
2023-09-25T11:56:36.568Z,101610.81
2023-09-25T11:59:03.781Z,101608.13
2023-09-25T12:01:31.045Z,101613.34
2023-09-25T12:03:58.835Z,101623.16
2023-09-25T12:06:27.953Z,101618.13
2023-09-25T12:08:56.471Z,101601.97
2023-09-25T12:11:23.907Z,101613.34
2023-09-25T12:13:51.710Z,101611.75
2023-09-25T12:16:19.982Z,101606.38
2023-09-25T12:18:48.113Z,101604.53
2023-09-25T12:21:15.645Z,101609.66
2023-09-25T12:23:44.227Z,101587.22
2023-09-25T12:26:11.521Z,101613.16
2023-09-25T12:28:39.238Z,101590.47
2023-09-25T12:31:06.450Z,101586.72
2023-09-25T12:33:33.744Z,101582.13
2023-09-25T12:36:01.109Z,101586.09
2023-09-25T12:38:28.806Z,101588.34
2023-09-25T12:40:57.633Z,101595.25
2023-09-25T12:43:25.422Z,101577.06
2023-09-25T12:45:53.122Z,101588.56
2023-09-25T12:48:21.299Z,101577.28
2023-09-25T12:50:50.428Z,101579.00
2023-09-25T12:53:20.325Z,101585.84
2023-09-25T12:55:47.598Z,101551.50
2023-09-25T12:58:14.807Z,101585.19
2023-09-25T13:00:42.164Z,101582.63
2023-09-25T13:03:10.052Z,101581.03
2023-09-25T13:05:37.698Z,101575.88
2023-09-25T13:08:05.329Z,101588.13
2023-09-25T13:10:32.900Z,101587.38
2023-09-25T13:13:00.296Z,101593.59
2023-09-25T13:15:27.782Z,101588.34
2023-09-25T13:17:55.090Z,101582.31
2023-09-25T13:20:22.552Z,101581.41
2023-09-25T13:22:49.901Z,101580.44
2023-09-25T13:25:17.264Z,101576.84
2023-09-25T13:27:51.122Z,101573.47
2023-09-25T13:30:20.674Z,101569.91
2023-09-25T13:32:48.231Z,101567.28
2023-09-25T13:35:16.021Z,101534.56
2023-09-25T13:37:44.162Z,101573.34
2023-09-25T13:40:22.516Z,101565.47
2023-09-25T13:42:49.990Z,101563.00
2023-09-25T13:45:17.163Z,101568.97
2023-09-25T13:47:45.220Z,101564.50
2023-09-25T13:50:14.019Z,101560.09
2023-09-25T13:52:42.351Z,101560.09
2023-09-25T13:55:11.881Z,101560.09
2023-09-25T13:57:40.228Z,101554.81
2023-09-25T14:00:09.901Z,101561.69
2023-09-25T14:02:42.141Z,101549.44
2023-09-25T14:05:10.238Z,101549.66
2023-09-25T14:07:37.475Z,101554.81
2023-09-25T14:10:05.272Z,101551.38
2023-09-25T14:12:32.729Z,101561.09
2023-09-25T14:15:00.047Z,101555.13
2023-09-25T14:17:27.337Z,101549.06
2023-09-25T14:19:54.520Z,101549.06
2023-09-25T14:22:21.830Z,101547.28
2023-09-25T14:24:49.047Z,101534.22
2023-09-25T14:27:18.498Z,101546.53
2023-09-25T14:29:45.597Z,101544.91
2023-09-25T14:32:13.017Z,101541.47
2023-09-25T14:34:40.208Z,101544.25
2023-09-25T14:37:07.449Z,101532.94
2023-09-25T14:39:34.721Z,101534.81
2023-09-25T14:42:01.984Z,101545.50
2023-09-25T14:44:29.159Z,101542.94
2023-09-25T14:46:56.670Z,101538.63
2023-09-25T14:49:24.140Z,101537.94
2023-09-25T14:51:54.235Z,101535.41
2023-09-25T14:54:21.527Z,101542.38
2023-09-25T14:56:48.724Z,101547.63
2023-09-25T14:59:15.958Z,101534.63
2023-09-25T15:01:43.473Z,101531.03
2023-09-25T15:04:10.812Z,101537.22
2023-09-25T15:06:38.068Z,101532.06
2023-09-25T15:09:05.359Z,101542.56
2023-09-25T15:11:32.536Z,101534.72
2023-09-25T15:14:00.340Z,101527.00
2023-09-25T15:16:27.705Z,101528.72
2023-09-25T15:18:55.001Z,101534.09
2023-09-25T15:21:22.158Z,101527.16
2023-09-25T15:23:49.624Z,101530.72
2023-09-25T15:26:17.028Z,101532.53
2023-09-25T15:28:44.341Z,101527.38
2023-09-25T15:31:11.865Z,101523.94
2023-09-25T15:33:39.232Z,101531.13
2023-09-25T15:36:06.591Z,101525.09
2023-09-25T15:38:33.834Z,101517.34
2023-09-25T15:41:01.118Z,101513.94
2023-09-25T15:43:28.196Z,101518.31
2023-09-25T15:45:55.568Z,101514.03
2023-09-25T15:48:22.841Z,101515.84
2023-09-25T15:50:52.150Z,101516.81
2023-09-25T15:53:19.379Z,101519.53
2023-09-25T15:55:46.479Z,101517.00
2023-09-25T15:58:13.773Z,101519.66
2023-09-25T16:00:41.256Z,101521.47
2023-09-25T16:03:08.575Z,101525.09
2023-09-25T16:05:36.013Z,101521.63
2023-09-25T16:08:03.245Z,101518.25
2023-09-25T16:10:30.482Z,101516.56
2023-09-25T16:12:57.690Z,101518.47
2023-09-25T16:15:24.816Z,101517.56
2023-09-25T16:17:52.010Z,101520.28
2023-09-25T16:20:19.990Z,101505.59
2023-09-25T16:22:47.061Z,101511.66
2023-09-25T16:25:14.429Z,101506.59
2023-09-25T16:27:42.082Z,101514.53
2023-09-25T16:30:09.552Z,101516.38
2023-09-25T16:32:36.714Z,101512.16
2023-09-25T16:35:04.050Z,101515.66
2023-09-25T16:37:31.199Z,101516.53
2023-09-25T16:39:58.497Z,101514.81
2023-09-25T16:42:25.722Z,101512.31
2023-09-25T16:44:52.849Z,101519.41
2023-09-25T16:47:22.093Z,101515.16
2023-09-25T16:49:50.557Z,101528.25
2023-09-25T16:52:17.651Z,101524.00
2023-09-25T16:54:44.957Z,101508.47
2023-09-25T16:57:12.064Z,101523.19
2023-09-25T16:59:39.326Z,101536.34
2023-09-25T17:02:07.327Z,101532.03
2023-09-25T17:04:34.736Z,101518.16
2023-09-25T17:07:01.935Z,101521.63
2023-09-25T17:09:29.190Z,101504.31
2023-09-25T17:11:56.339Z,101522.56
2023-09-25T17:14:23.497Z,101507.94
2023-09-25T17:16:50.809Z,101504.50
2023-09-25T17:19:18.007Z,101505.34
2023-09-25T17:21:45.209Z,101509.66
2023-09-25T17:24:12.482Z,101507.94
2023-09-25T17:26:39.589Z,101504.56
2023-09-25T17:29:06.743Z,101508.13
2023-09-25T17:31:34.015Z,101496.75
2023-09-25T17:34:01.291Z,101508.06
2023-09-25T17:36:28.406Z,101508.22
2023-09-25T17:38:55.718Z,101502.00
2023-09-25T17:41:22.957Z,101499.50
2023-09-25T17:43:50.249Z,101499.41
2023-09-25T17:46:17.687Z,101489.06
2023-09-25T17:48:45.114Z,101492.47
2023-09-25T17:51:12.764Z,101487.31
2023-09-25T17:53:39.994Z,101489.00
2023-09-25T17:56:09.867Z,101492.56
2023-09-25T17:58:37.169Z,101497.72
2023-09-25T18:01:04.580Z,101498.63
2023-09-25T18:03:32.046Z,101489.16
2023-09-25T18:05:59.398Z,101492.56
2023-09-25T18:08:26.564Z,101483.97
2023-09-25T18:10:53.949Z,101487.41
2023-09-25T18:13:22.275Z,101491.78
2023-09-25T18:15:50.633Z,101485.69
2023-09-25T18:18:18.218Z,101492.66
2023-09-25T18:20:45.687Z,101490.09
2023-09-25T18:23:13.267Z,101481.47
2023-09-25T18:25:42.408Z,101491.88
2023-09-25T18:28:09.773Z,101496.28
2023-09-25T18:30:37.881Z,101474.78
2023-09-25T18:33:10.681Z,101492.84
2023-09-25T18:35:38.577Z,101490.22
2023-09-25T18:38:05.680Z,101486.81
2023-09-25T18:40:35.957Z,101486.00
2023-09-25T18:43:04.518Z,101482.59
2023-09-25T18:45:32.338Z,101493.00
2023-09-25T18:47:59.969Z,101488.69
2023-09-25T18:50:27.155Z,101487.84
2023-09-25T18:52:54.312Z,101488.72
2023-09-25T18:55:21.596Z,101491.34
2023-09-25T18:57:48.736Z,101486.19
2023-09-25T19:00:16.214Z,101494.88
2023-09-25T19:02:43.407Z,101492.28
2023-09-25T19:05:10.730Z,101489.66
2023-09-25T19:07:38.102Z,101464.75
2023-09-25T19:10:06.148Z,101493.31
2023-09-25T19:12:33.520Z,101482.81
2023-09-25T19:15:00.979Z,101495.06
2023-09-25T19:17:28.088Z,101494.16
2023-09-25T19:19:55.201Z,101487.31
2023-09-25T19:22:22.350Z,101495.13
2023-09-25T19:24:49.519Z,101491.69
2023-09-25T19:27:16.670Z,101493.50
2023-09-25T19:29:43.825Z,101496.97
2023-09-25T19:32:11.295Z,101500.44
2023-09-25T19:34:38.634Z,101498.72
2023-09-25T19:37:06.018Z,101493.56
2023-09-25T19:39:33.269Z,101491.75
2023-09-25T19:42:00.460Z,101484.78
2023-09-25T19:44:27.757Z,101492.63
2023-09-25T19:46:54.963Z,101489.19
2023-09-25T19:49:22.340Z,101490.13
2023-09-25T19:51:50.592Z,101484.88
2023-09-25T19:54:18.116Z,101484.94
2023-09-25T19:56:45.261Z,101478.03
2023-09-25T19:59:12.489Z,101485.81
2023-09-25T20:01:41.972Z,101484.97
2023-09-25T20:04:10.270Z,101474.63
2023-09-25T20:06:37.831Z,101483.28
2023-09-25T20:09:05.188Z,101483.38
2023-09-25T20:11:32.288Z,101480.75
2023-09-25T20:13:59.508Z,101479.06
2023-09-25T20:16:26.979Z,101489.47
2023-09-25T20:18:54.397Z,101486.91
2023-09-25T20:21:23.243Z,101492.16
2023-09-25T20:23:53.198Z,101490.41
2023-09-25T20:26:20.306Z,101485.25
2023-09-25T20:28:47.508Z,101488.72
2023-09-25T20:31:14.792Z,101482.69
2023-09-25T20:33:42.092Z,101483.47
2023-09-25T20:36:10.113Z,101488.75
2023-09-25T20:38:37.804Z,101487.06
2023-09-25T20:41:05.029Z,101497.50
2023-09-25T20:43:32.176Z,101494.88
2023-09-25T20:45:59.947Z,101484.56
2023-09-25T20:48:27.093Z,101481.88
2023-09-25T20:50:54.205Z,101493.19
2023-09-25T20:53:21.493Z,101489.81
2023-09-25T20:55:48.978Z,101486.34
2023-09-25T20:58:16.405Z,101492.38
2023-09-25T21:00:43.729Z,101490.75
2023-09-25T21:03:11.207Z,101469.16
2023-09-25T21:05:38.470Z,101483.84
2023-09-25T21:08:05.898Z,101495.06
2023-09-25T21:10:33.086Z,101495.97
2023-09-25T21:13:00.377Z,101489.06
2023-09-25T21:15:27.549Z,101489.88
2023-09-25T21:17:54.739Z,101492.53
2023-09-25T21:20:21.949Z,101490.00
2023-09-25T21:22:49.078Z,101500.44
2023-09-25T21:25:16.389Z,101494.31
2023-09-25T21:27:43.894Z,101487.44
2023-09-25T21:30:12.792Z,101492.69
2023-09-25T21:32:39.837Z,101492.69
2023-09-25T21:35:07.320Z,101488.38
2023-09-25T21:37:34.601Z,101468.63
2023-09-25T21:40:02.069Z,101488.47
2023-09-25T21:42:29.261Z,101489.31
2023-09-25T21:44:57.147Z,101488.47
2023-09-25T21:47:24.370Z,101489.31
2023-09-25T21:49:51.613Z,101495.41
2023-09-25T21:52:18.960Z,101498.09
2023-09-25T21:54:46.342Z,101497.28
2023-09-25T21:57:13.648Z,101495.53
2023-09-25T21:59:40.736Z,101492.94
2023-09-25T22:02:08.629Z,101494.78
2023-09-25T22:04:35.810Z,101499.88
2023-09-25T22:07:03.419Z,101499.03
2023-09-25T22:09:31.125Z,101503.41
2023-09-25T22:11:58.530Z,101506.91
2023-09-25T22:14:25.805Z,101503.41
2023-09-25T22:16:52.942Z,101501.66
2023-09-25T22:19:20.185Z,101501.66
2023-09-25T22:21:48.554Z,101496.44
2023-09-25T22:24:16.494Z,101497.34
2023-09-25T22:26:44.097Z,101494.72
2023-09-25T22:29:11.347Z,101494.72
2023-09-25T22:31:40.822Z,101484.31
2023-09-25T22:34:09.063Z,101496.50
2023-09-25T22:36:36.235Z,101491.25
2023-09-25T22:39:04.061Z,101486.06
2023-09-25T22:41:31.222Z,101487.81
2023-09-25T22:43:58.624Z,101490.44
2023-09-25T22:46:25.939Z,101493.09
2023-09-25T22:48:53.155Z,101492.19
2023-09-25T22:51:20.458Z,101486.13
2023-09-25T22:53:47.867Z,101489.59
2023-09-25T22:56:15.001Z,101493.06
2023-09-25T22:58:42.141Z,101481.78
2023-09-25T23:01:10.122Z,101482.66
2023-09-25T23:03:37.442Z,101487.09
2023-09-25T23:06:05.667Z,101496.63
2023-09-25T23:08:32.901Z,101491.47
2023-09-25T23:11:00.092Z,101490.53
2023-09-25T23:13:27.332Z,101492.34
2023-09-25T23:15:54.634Z,101489.72
2023-09-25T23:18:21.829Z,101482.84
2023-09-25T23:20:52.754Z,101483.63
2023-09-25T23:23:19.953Z,101477.59
2023-09-25T23:25:47.102Z,101493.19
2023-09-25T23:28:14.725Z,101481.03
2023-09-25T23:30:42.007Z,101479.22
2023-09-25T23:33:09.322Z,101481.97
2023-09-25T23:35:36.611Z,101476.75
2023-09-25T23:38:04.245Z,101479.31
2023-09-25T23:40:32.126Z,101463.81
2023-09-25T23:42:59.667Z,101476.75
2023-09-25T23:45:26.864Z,101474.22
2023-09-25T23:47:54.438Z,101472.44
2023-09-25T23:50:21.817Z,101475.94
2023-09-25T23:52:50.114Z,101462.06
2023-09-25T23:55:17.447Z,101462.91
2023-09-25T23:57:44.689Z,101462.97
